weather.gov     
National Weather Service

Terminal Aerodrome Forecast
NWS Homepage
This page is being discontinued on March 12, 2014.
The same data is available at this site. Please update your bookmarks.
Thank you, and we apologize for the inconvenience.
Please send an email to SR-SRH.Webmaster@noaa.gov with any concerns.


Current Version
Previous Version:    01  02  03  04  05  06  07  08  09  10  11  12  13  14  15  16  17  18  19  20  21  22  23  
[Printable]
004
FTUS42 TJSJ 312100 AAB
TAFJMZ
TAF AMD
TJMZ 312101Z 3121/0118 20007KT P6SM VCTS FEW025CB BKN035 BKN060
      TEMPO 3121/3122 VRB12KT 5SM SHRA BKN025
     FM312230 09005KT P6SM -RA SCT030 BKN060 BKN120
     FM312330 VRB03KT P6SM FEW030 SCT060 SCT120
     FM011630 17009KT P6SM SCT030=


U.S. Dept. of Commerce
NOAA National Weather Service
1325 East West Highway
Silver Spring, MD 20910
E-mail: w-nws.webmaster@noaa.gov
Page last modified: May 16, 2007
NATIONAL WEATHER SERVICE: for Safety, for Work, for Fun - FOR LIFE